Finley, ND (58230)

7:41 PM CDT on March 27, 2015 (GMT -0500)
Grand Forks Air Force Base | | Change Station
CLOSE
Current Station
Airport
Location: Grand Forks AFB,
Elevation: 912 ft
Nearby Weather Stations

Elev 912 ft 47.96 °N, 97.40 °W | Updated 15 minutes ago

Overcast
Overcast
30 °F
Feels Like 20 °F
N
13
Wind Variable Wind from South

Today
High -- | Low -- °F
--% Chance of Precip.
Yesterday
High -- | Low -- °F
Precip. -- in
7:20 AM 7:53 PM
First Quarter, 57% visible
Pressure 30.07 in
Visibility 8.0 miles
Clouds Overcast 2000 ft
Windchill 20 °F
Dew Point 25 °F
Humidity 80%
Rainfall 0.00 in
Snow Depth Not available.
UV 0 out of 12
Pollen .40 out of 12
Air Quality Not available.
Flu Activity Not available.
SPECI KRDR 280026Z AUTO 18011KT 8SM OVC020 M01/M04 A3007 RMK AO2 SNE14SNB16E26

More Conditions Fewer Conditions

Pressure 30.07 in
Visibility 8.0 miles
Clouds Overcast 2000 ft
Windchill 20 °F
Dew Point 25 °F
Humidity 80%
Rainfall 0.00 in
Snow Depth Not available.
UV 0 out of 12
Pollen .40 out of 12
Air Quality Not available.
Flu Activity Not available.
SPECI KRDR 280026Z AUTO 18011KT 8SM OVC020 M01/M04 A3007 RMK AO2 SNE14SNB16E26

More Conditions Fewer Conditions

10-Day Weather Forecast

Almanac

Astronomy

Mar. 27, 2015 Rise Set
Actual Time
Civil Twilight
Nautical Twilight
Astronomical Twilight
Moon
Length of Visible Light
Length of Day
Tomorrow will be .
, % of the Moon is Illuminated

Today's Extremes

State Highs State Lows

Community

WunderPhotos

Upload Photos

1,808,894 photos uploaded!

WunderBlogs® & News

Nearby

Air Quality

  Air Quality AQ Index Pollutant
Not available.

Snow Depth

Station Depth Elevation

Earthquake Activity

City Distance Mag. Time & Date
Minimum magnitude displayed is 2.5.

Coastal Water Temperatures

Place Temperature

Stations

Nearby Weather Stations

Station Location Temp. Windchill Dew Point Humidity Wind Precip. Elev Updated Type